^^
Datos históricos de la estación: Murcia-Puente Tocinos
Diario Informe para Diciembre 09, 2021 Unidades:  Ambas    Ingés   Métrico
Diario Semanal Mensual Anual
  Máxima: Mínima: Promedio:
Temperatura: 67.3 °F /  19.6 °C 46.6 °F /  8.1 °C 55.9 °F /  13.3 °C
Punto de rocio: 42.4 °F /  5.8 °C 33.6 °F /  0.9 °C 37 °F /  2.8 °C
Humedad: 63.6% 34.1% 50%
Velocidad viento: 10mph /  16.1km/h - 4.8mph /  7.7km/h
Racha viento: 20.8mph /  33.5km/h - -
Viento- - SSO
Presión: 30.2 in /  1022.0 hPa 30 in /  1017.2 hPa -
Precipitación: 0 in /  0.0 mm    
 
 
Tabla de datos para Diciembre 09, 2021
Hora Temperatura Punto de rocio Presión Viento Velocidad viento Racha viento Humedad Intensidad lluvia(por hora) Nubes
00:04 54.9 °F /  12.7 °C 33.8 °F /  1 °C 30.1in /  1017.8hPa SO 2.9mph /  4.7km/h 4.6mph /  7.4km/h 45% 0in /  0.0mm
00:09 54.9 °F /  12.7 °C 34 °F /  1.1 °C 30.1in /  1017.8hPa SO 2.7mph /  4.4km/h 9.2mph /  14.8km/h 45% 0in /  0.0mm
00:14 55 °F /  12.8 °C 34.2 °F /  1.2 °C 30.1in /  1017.7hPa SO 2.4mph /  3.9km/h 9.2mph /  14.8km/h 45% 0in /  0.0mm
00:19 55.2 °F /  12.9 °C 34.2 °F /  1.2 °C 30.1in /  1017.7hPa SSO 2.9mph /  4.7km/h 5.8mph /  9.3km/h 45% 0in /  0.0mm
00:24 55 °F /  12.8 °C 34.2 °F /  1.2 °C 30.1in /  1017.7hPa SO 4.3mph /  6.9km/h 5.4mph /  8.7km/h 45% 0in /  0.0mm
00:29 55 °F /  12.8 °C 34.5 °F /  1.4 °C 30.1in /  1017.7hPa SO 3.7mph /  6km/h 5.8mph /  9.3km/h 45.7% 0in /  0.0mm
00:34 55 °F /  12.8 °C 34.5 °F /  1.4 °C 30.1in /  1017.7hPa OSO 2.4mph /  3.9km/h 8.1mph /  13km/h 46% 0in /  0.0mm
00:39 55 °F /  12.8 °C 34.5 °F /  1.4 °C 30.1in /  1017.8hPa SO 2.9mph /  4.7km/h 6.2mph /  10km/h 46% 0in /  0.0mm
00:44 55 °F /  12.8 °C 34.2 °F /  1.2 °C 30.1in /  1017.8hPa SSO 4.3mph /  6.9km/h 6.2mph /  10km/h 45.3% 0in /  0.0mm
00:49 54.9 °F /  12.7 °C 34.3 °F /  1.3 °C 30.1in /  1017.8hPa SSO 4.2mph /  6.8km/h 5.9mph /  9.5km/h 46% 0in /  0.0mm
00:54 54.7 °F /  12.6 °C 34.3 °F /  1.3 °C 30.1in /  1017.9hPa SSO 4mph /  6.4km/h 4.7mph /  7.6km/h 46% 0in /  0.0mm
00:59 54.5 °F /  12.5 °C 34.2 °F /  1.2 °C 30.1in /  1017.9hPa SSO 3.7mph /  5.9km/h 4.6mph /  7.4km/h 46% 0in /  0.0mm
01:04 54.3 °F /  12.4 °C 34 °F /  1.1 °C 30.1in /  1017.9hPa SO 2.9mph /  4.7km/h 5.9mph /  9.5km/h 46.1% 0in /  0.0mm
01:09 54.1 °F /  12.3 °C 34.2 °F /  1.2 °C 30.1in /  1018.0hPa SO 3.2mph /  5.2km/h 5.9mph /  9.5km/h 46.5% 0in /  0.0mm
01:14 54.1 °F /  12.3 °C 34.3 °F /  1.3 °C 30.1in /  1018.0hPa OSO 4mph /  6.4km/h 3.5mph /  5.6km/h 47% 0in /  0.0mm
01:19 54.1 °F /  12.3 °C 34.3 °F /  1.3 °C 30.1in /  1018.0hPa OSO 3.4mph /  5.5km/h 3.5mph /  5.6km/h 47% 0in /  0.0mm
01:24 54 °F /  12.2 °C 34.2 °F /  1.2 °C 30.1in /  1018.0hPa OSO 1.8mph /  2.9km/h 2.9mph /  4.7km/h 47% 0in /  0.0mm
01:29 54 °F /  12.2 °C 34.2 °F /  1.2 °C 30.1in /  1018.0hPa OSO 1.8mph /  2.9km/h 3.6mph /  5.8km/h 47% 0in /  0.0mm
01:34 54 °F /  12.2 °C 34.2 °F /  1.2 °C 30.1in /  1018.0hPa OSO 1.8mph /  2.9km/h 3.6mph /  5.8km/h 47% 0in /  0.0mm
01:39 53.8 °F /  12.1 °C 34.3 °F /  1.3 °C 30.1in /  1018.0hPa Oeste 1.9mph /  3km/h 4.6mph /  7.4km/h 47.9% 0in /  0.0mm
01:44 53.4 °F /  11.9 °C 34.2 °F /  1.2 °C 30.1in /  1018.0hPa OSO 2mph /  3.2km/h 5.2mph /  8.4km/h 48% 0in /  0.0mm
01:49 53.2 °F /  11.8 °C 34.3 °F /  1.3 °C 30.1in /  1018.0hPa OSO 2.2mph /  3.6km/h 4.7mph /  7.6km/h 48.7% 0in /  0.0mm
01:54 52.9 °F /  11.6 °C 34.2 °F /  1.2 °C 30.1in /  1018.0hPa OSO 2.9mph /  4.7km/h 5.9mph /  9.5km/h 49.1% 0in /  0.0mm
01:59 52.3 °F /  11.3 °C 34.2 °F /  1.2 °C 30.1in /  1018.0hPa SSO 3.4mph /  5.4km/h 9.2mph /  14.8km/h 49.8% 0in /  0.0mm
02:04 52.7 °F /  11.5 °C 34.2 °F /  1.2 °C 30.1in /  1018.0hPa SO 4.3mph /  6.9km/h 8.1mph /  13km/h 49% 0in /  0.0mm
02:09 53.1 °F /  11.7 °C 33.8 °F /  1 °C 30.1in /  1018.0hPa SO 4.5mph /  7.3km/h 7.4mph /  11.9km/h 48% 0in /  0.0mm
02:14 53.1 °F /  11.7 °C 33.8 °F /  1 °C 30.1in /  1018.0hPa SSO 5.2mph /  8.4km/h 8.1mph /  13km/h 48% 0in /  0.0mm
02:19 52.9 °F /  11.6 °C 33.6 °F /  0.9 °C 30.1in /  1018.0hPa SO 5mph /  8.1km/h 6.9mph /  11.1km/h 48% 0in /  0.0mm
02:24 52.7 °F /  11.5 °C 33.8 °F /  1 °C 30.1in /  1018.0hPa Oeste 4.7mph /  7.6km/h 4.6mph /  7.4km/h 48.6% 0in /  0.0mm
02:29 52.2 °F /  11.2 °C 33.8 °F /  1 °C 30.1in /  1018.0hPa SO 4.3mph /  6.9km/h 6.9mph /  11.1km/h 49.5% 0in /  0.0mm
02:34 51.8 °F /  11 °C 33.8 °F /  1 °C 30.1in /  1018.0hPa SO 3.1mph /  5km/h 8.1mph /  13km/h 50% 0in /  0.0mm
02:39 51.8 °F /  11 °C 33.6 °F /  0.9 °C 30.1in /  1018.2hPa OSO 3.4mph /  5.4km/h 8.1mph /  13km/h 50% 0in /  0.0mm
02:44 51.4 °F /  10.8 °C 33.8 °F /  1 °C 30.1in /  1018.2hPa OSO 4mph /  6.4km/h 5.8mph /  9.3km/h 50.7% 0in /  0.0mm
02:49 51.3 °F /  10.7 °C 33.8 °F /  1 °C 30.1in /  1018.2hPa Oeste 3.9mph /  6.3km/h 5.9mph /  9.5km/h 51.4% 0in /  0.0mm
02:54 50.7 °F /  10.4 °C 33.8 °F /  1 °C 30.1in /  1018.4hPa OSO 3.6mph /  5.8km/h 4.7mph /  7.6km/h 52.1% 0in /  0.0mm
02:59 50.5 °F /  10.3 °C 34 °F /  1.1 °C 30.1in /  1018.4hPa Oeste 3.4mph /  5.5km/h 4.7mph /  7.6km/h 53% 0in /  0.0mm
03:04 50.4 °F /  10.2 °C 34 °F /  1.1 °C 30.1in /  1018.4hPa Oeste 3.1mph /  5km/h 4.6mph /  7.4km/h 53.2% 0in /  0.0mm
03:09 49.8 °F /  9.9 °C 34 °F /  1.1 °C 30.1in /  1018.7hPa ONO 2.8mph /  4.5km/h 4.6mph /  7.4km/h 54% 0in /  0.0mm
03:14 49.5 °F /  9.7 °C 34 °F /  1.1 °C 30.1in /  1018.7hPa SO 2mph /  3.2km/h 7.4mph /  11.9km/h 54.9% 0in /  0.0mm
03:19 49.5 °F /  9.7 °C 34 °F /  1.1 °C 30.1in /  1018.7hPa OSO 2.5mph /  4km/h 6.9mph /  11.1km/h 55% 0in /  0.0mm
03:24 49.6 °F /  9.8 °C 34.2 °F /  1.2 °C 30.1in /  1018.8hPa North 3.6mph /  5.8km/h 5.2mph /  8.4km/h 55% 0in /  0.0mm
03:29 49.5 °F /  9.7 °C 34.2 °F /  1.2 °C 30.1in /  1018.8hPa ENE 3.3mph /  5.3km/h 4.6mph /  7.4km/h 55.4% 0in /  0.0mm
03:34 48.9 °F /  9.4 °C 34.2 °F /  1.2 °C 30.1in /  1018.8hPa Este 2.4mph /  3.9km/h 6.2mph /  10km/h 56.5% 0in /  0.0mm
03:39 48.6 °F /  9.2 °C 34.2 °F /  1.2 °C 30.1in /  1018.9hPa ESE 2.9mph /  4.6km/h 8.1mph /  13km/h 57.5% 0in /  0.0mm
03:44 48.2 °F /  9 °C 34.2 °F /  1.2 °C 30.1in /  1018.9hPa ESE 4mph /  6.4km/h 9.7mph /  15.6km/h 58.1% 0in /  0.0mm
03:49 47.7 °F /  8.7 °C 34 °F /  1.1 °C 30.1in /  1018.9hPa ESE 4.4mph /  7.1km/h 9.2mph /  14.8km/h 59% 0in /  0.0mm
03:54 47.8 °F /  8.8 °C 34.2 °F /  1.2 °C 30.1in /  1018.9hPa SSE 5.4mph /  8.7km/h 9.2mph /  14.8km/h 59% 0in /  0.0mm
03:59 47.8 °F /  8.8 °C 34.3 °F /  1.3 °C 30.1in /  1018.9hPa SSE 5.6mph /  9km/h 9.2mph /  14.8km/h 59% 0in /  0.0mm
04:04 48 °F /  8.9 °C 34 °F /  1.1 °C 30.1in /  1018.9hPa SSE 5.9mph /  9.5km/h 8.5mph /  13.7km/h 58% 0in /  0.0mm
04:09 48.2 °F /  9 °C 34.2 °F /  1.2 °C 30.1in /  1019.1hPa SSE 5.7mph /  9.2km/h 8.1mph /  13km/h 58% 0in /  0.0mm
04:14 48.4 °F /  9.1 °C 34.3 °F /  1.3 °C 30.1in /  1019.1hPa SSE 5.4mph /  8.7km/h 6.9mph /  11.1km/h 58% 0in /  0.0mm
04:19 48.6 °F /  9.2 °C 34 °F /  1.1 °C 30.1in /  1019.1hPa SE 5.2mph /  8.4km/h 7.4mph /  11.9km/h 57% 0in /  0.0mm
04:24 48.6 °F /  9.2 °C 34 °F /  1.1 °C 30.1in /  1019.1hPa SE 4.7mph /  7.6km/h 6.9mph /  11.1km/h 57% 0in /  0.0mm
04:29 48.7 °F /  9.3 °C 34.2 °F /  1.2 °C 30.1in /  1019.1hPa SE 4.8mph /  7.8km/h 8.1mph /  13km/h 56.8% 0in /  0.0mm
04:34 48.9 °F /  9.4 °C 34 °F /  1.1 °C 30.1in /  1019.1hPa SE 5.2mph /  8.4km/h 6.9mph /  11.1km/h 56% 0in /  0.0mm
04:39 49.1 °F /  9.5 °C 34 °F /  1.1 °C 30.1in /  1019.2hPa SE 4.9mph /  7.9km/h 6.9mph /  11.1km/h 56% 0in /  0.0mm
04:44 49.1 °F /  9.5 °C 34 °F /  1.1 °C 30.1in /  1019.2hPa SE 4.3mph /  6.9km/h 8.5mph /  13.7km/h 56% 0in /  0.0mm
04:49 49.3 °F /  9.6 °C 34.2 °F /  1.2 °C 30.1in /  1019.2hPa Sur 4.8mph /  7.7km/h 9.2mph /  14.8km/h 56% 0in /  0.0mm
04:54 49.5 °F /  9.7 °C 34 °F /  1.1 °C 30.1in /  1019.2hPa Sur 5.9mph /  9.5km/h 8.5mph /  13.7km/h 55.1% 0in /  0.0mm
04:59 49.6 °F /  9.8 °C 34.2 °F /  1.2 °C 30.1in /  1019.1hPa SSO 5.7mph /  9.2km/h 8.1mph /  13km/h 55% 0in /  0.0mm
05:04 49.6 °F /  9.8 °C 34.2 °F /  1.2 °C 30.1in /  1019.1hPa SSO 5.4mph /  8.7km/h 8.1mph /  13km/h 55% 0in /  0.0mm
05:09 49.6 °F /  9.8 °C 34.2 °F /  1.2 °C 30.1in /  1019.2hPa SSO 5.2mph /  8.4km/h 8.1mph /  13km/h 55% 0in /  0.0mm
05:14 49.6 °F /  9.8 °C 34.2 °F /  1.2 °C 30.1in /  1019.2hPa Sur 4.7mph /  7.6km/h 7.4mph /  11.9km/h 55% 0in /  0.0mm
05:19 49.6 °F /  9.8 °C 34.2 °F /  1.2 °C 30.1in /  1019.2hPa SSE 4.6mph /  7.4km/h 5.9mph /  9.5km/h 55% 0in /  0.0mm
05:24 49.6 °F /  9.8 °C 34.2 °F /  1.2 °C 30.1in /  1019.3hPa SSE 4.3mph /  6.9km/h 5.8mph /  9.3km/h 55% 0in /  0.0mm
05:29 49.6 °F /  9.8 °C 34.2 °F /  1.2 °C 30.1in /  1019.3hPa SSE 4.1mph /  6.6km/h 5.9mph /  9.5km/h 55% 0in /  0.0mm
05:34 49.5 °F /  9.7 °C 34.3 °F /  1.3 °C 30.1in /  1019.3hPa Sur 3.6mph /  5.8km/h 7.4mph /  11.9km/h 55.8% 0in /  0.0mm
05:39 49.6 °F /  9.8 °C 34.5 °F /  1.4 °C 30.1in /  1019.5hPa SSO 3.5mph /  5.6km/h 6.9mph /  11.1km/h 55.8% 0in /  0.0mm
05:44 49.8 °F /  9.9 °C 34.3 °F /  1.3 °C 30.1in /  1019.5hPa SO 3.1mph /  5km/h 8.5mph /  13.7km/h 55% 0in /  0.0mm
05:49 50 °F /  10 °C 34.3 °F /  1.3 °C 30.1in /  1019.5hPa SSO 3.4mph /  5.4km/h 6.2mph /  10km/h 55% 0in /  0.0mm
05:54 50.2 °F /  10.1 °C 34.5 °F /  1.4 °C 30.1in /  1019.5hPa SSO 4mph /  6.4km/h 5.2mph /  8.4km/h 55% 0in /  0.0mm
05:59 50.2 °F /  10.1 °C 34.5 °F /  1.4 °C 30.1in /  1019.5hPa SSO 3.7mph /  5.9km/h 4.7mph /  7.6km/h 55% 0in /  0.0mm
06:04 50.2 °F /  10.1 °C 34.5 °F /  1.4 °C 30.1in /  1019.5hPa SSO 3.1mph /  5km/h 4.6mph /  7.4km/h 55% 0in /  0.0mm
06:09 50 °F /  10 °C 34.5 °F /  1.4 °C 30.1in /  1019.7hPa Sur 2.8mph /  4.5km/h 4mph /  6.4km/h 55% 0in /  0.0mm
06:14 49.5 °F /  9.7 °C 34.2 °F /  1.2 °C 30.1in /  1019.7hPa NE 2mph /  3.2km/h 4.6mph /  7.4km/h 55.5% 0in /  0.0mm
06:19 49.1 °F /  9.5 °C 34.3 °F /  1.3 °C 30.1in /  1019.7hPa NE 2mph /  3.2km/h 2.4mph /  3.9km/h 56.7% 0in /  0.0mm
06:24 48.7 °F /  9.3 °C 34.2 °F /  1.2 °C 30.1in /  1019.8hPa NE 2mph /  3.2km/h 2.3mph /  3.7km/h 57% 0in /  0.0mm
06:29 48.6 °F /  9.2 °C 34.2 °F /  1.2 °C 30.1in /  1019.8hPa NE 1.8mph /  2.9km/h 3.5mph /  5.6km/h 57.8% 0in /  0.0mm
06:34 48.2 °F /  9 °C 34.3 °F /  1.3 °C 30.1in /  1019.8hPa NNO 1.4mph /  2.3km/h 3.5mph /  5.6km/h 58.7% 0in /  0.0mm
06:39 48 °F /  8.9 °C 34.3 °F /  1.3 °C 30.1in /  1019.9hPa Oeste 1.6mph /  2.5km/h 3.6mph /  5.8km/h 59% 0in /  0.0mm
06:44 47.8 °F /  8.8 °C 34.2 °F /  1.2 °C 30.1in /  1019.9hPa Oeste 2mph /  3.2km/h 3.6mph /  5.8km/h 59% 0in /  0.0mm
06:49 47.8 °F /  8.8 °C 34.2 °F /  1.2 °C 30.1in /  1019.9hPa NO 1.9mph /  3.1km/h 2.9mph /  4.7km/h 59.3% 0in /  0.0mm
06:54 47.7 °F /  8.7 °C 34.3 °F /  1.3 °C 30.1in /  1020.1hPa NNE 1.8mph /  2.9km/h 5.4mph /  8.7km/h 60% 0in /  0.0mm
06:59 47.1 °F /  8.4 °C 34 °F /  1.1 °C 30.1in /  1020.1hPa ESE 2.2mph /  3.5km/h 5.8mph /  9.3km/h 60.3% 0in /  0.0mm
07:04 46.8 °F /  8.2 °C 34.2 °F /  1.2 °C 30.1in /  1020.1hPa ESE 2.9mph /  4.7km/h 4mph /  6.4km/h 61.2% 0in /  0.0mm
07:09 46.6 °F /  8.1 °C 34.2 °F /  1.2 °C 30.1in /  1020.2hPa ESE 2.7mph /  4.4km/h 4.6mph /  7.4km/h 62% 0in /  0.0mm
07:14 46.6 °F /  8.1 °C 34.2 °F /  1.2 °C 30.1in /  1020.2hPa ESE 2.4mph /  3.9km/h 5.8mph /  9.3km/h 62% 0in /  0.0mm
07:19 46.9 °F /  8.3 °C 34.5 °F /  1.4 °C 30.1in /  1020.2hPa Este 2.7mph /  4.4km/h 5.9mph /  9.5km/h 61.8% 0in /  0.0mm
07:24 47.5 °F /  8.6 °C 34.5 °F /  1.4 °C 30.1in /  1020.5hPa ESE 3.6mph /  5.8km/h 5.8mph /  9.3km/h 60.5% 0in /  0.0mm
07:29 47.7 °F /  8.7 °C 34.5 °F /  1.4 °C 30.1in /  1020.5hPa SE 3.5mph /  5.6km/h 4.6mph /  7.4km/h 60% 0in /  0.0mm
07:34 47.8 °F /  8.8 °C 34.5 °F /  1.4 °C 30.1in /  1020.5hPa SE 3.1mph /  5km/h 4.6mph /  7.4km/h 60% 0in /  0.0mm
07:39 47.8 °F /  8.8 °C 34.5 °F /  1.4 °C 30.1in /  1020.8hPa SE 3mph /  4.9km/h 5.2mph /  8.4km/h 60% 0in /  0.0mm
07:44 47.7 °F /  8.7 °C 34.3 °F /  1.3 °C 30.1in /  1020.8hPa SE 2.9mph /  4.7km/h 4.6mph /  7.4km/h 60% 0in /  0.0mm
07:49 47.7 °F /  8.7 °C 34.3 °F /  1.3 °C 30.1in /  1020.8hPa SE 2.7mph /  4.3km/h 3.5mph /  5.6km/h 60.1% 0in /  0.0mm
07:54 47.7 °F /  8.7 °C 34.9 °F /  1.6 °C 30.2in /  1020.9hPa SE 2mph /  3.2km/h 5.8mph /  9.3km/h 61% 0in /  0.0mm
07:59 47.7 °F /  8.7 °C 34.7 °F /  1.5 °C 30.2in /  1020.9hPa Sur 2.4mph /  3.8km/h 5.9mph /  9.5km/h 60.5% 0in /  0.0mm
08:04 48 °F /  8.9 °C 34.7 °F /  1.5 °C 30.2in /  1020.9hPa Sur 3.1mph /  5km/h 7.4mph /  11.9km/h 60% 0in /  0.0mm
08:09 47.8 °F /  8.8 °C 34.7 °F /  1.5 °C 30.2in /  1021.0hPa Sur 3.8mph /  6.1km/h 8.5mph /  13.7km/h 60% 0in /  0.0mm
08:14 47.8 °F /  8.8 °C 34.5 °F /  1.4 °C 30.2in /  1021.0hPa Sur 5.4mph /  8.7km/h 6.9mph /  11.1km/h 60% 0in /  0.0mm
08:19 47.8 °F /  8.8 °C 34.7 °F /  1.5 °C 30.2in /  1021.0hPa SSO 5.2mph /  8.4km/h 6.9mph /  11.1km/h 60% 0in /  0.0mm
08:24 48.2 °F /  9 °C 34.5 °F /  1.4 °C 30.2in /  1021.3hPa SO 4.7mph /  7.6km/h 6.9mph /  11.1km/h 59.2% 0in /  0.0mm
08:29 48.4 °F /  9.1 °C 34.7 °F /  1.5 °C 30.2in /  1021.3hPa SO 4.6mph /  7.4km/h 5.9mph /  9.5km/h 59% 0in /  0.0mm
08:34 48.6 °F /  9.2 °C 34.7 °F /  1.5 °C 30.2in /  1021.3hPa OSO 4.3mph /  6.9km/h 4.7mph /  7.6km/h 58.5% 0in /  0.0mm
08:39 48.6 °F /  9.2 °C 34.7 °F /  1.5 °C 30.2in /  1021.5hPa Oeste 4mph /  6.4km/h 5.2mph /  8.4km/h 58.3% 0in /  0.0mm
08:44 48.2 °F /  9 °C 34.7 °F /  1.5 °C 30.2in /  1021.5hPa ONO 2.9mph /  4.7km/h 5.2mph /  8.4km/h 59.4% 0in /  0.0mm
08:49 47.8 °F /  8.8 °C 34.7 °F /  1.5 °C 30.2in /  1021.5hPa Oeste 3mph /  4.8km/h 5.2mph /  8.4km/h 60.4% 0in /  0.0mm
08:54 47.5 °F /  8.6 °C 34.9 °F /  1.6 °C 30.2in /  1021.8hPa Oeste 3.1mph /  5km/h 5.2mph /  8.4km/h 61.2% 0in /  0.0mm
08:59 47.1 °F /  8.4 °C 34.9 °F /  1.6 °C 30.2in /  1021.8hPa Oeste 3.2mph /  5.2km/h 5.9mph /  9.5km/h 62.2% 0in /  0.0mm
09:04 46.9 °F /  8.3 °C 35.1 °F /  1.7 °C 30.2in /  1021.8hPa ONO 3.6mph /  5.8km/h 4.6mph /  7.4km/h 63% 0in /  0.0mm
09:09 47.1 °F /  8.4 °C 35.4 °F /  1.9 °C 30.2in /  1022.0hPa ONO 3.1mph /  5km/h 3.6mph /  5.8km/h 63.6% 0in /  0.0mm
09:14 47.5 °F /  8.6 °C 35.8 °F /  2.1 °C 30.2in /  1022.0hPa North 2mph /  3.2km/h 4.6mph /  7.4km/h 63.6% 0in /  0.0mm
09:19 48 °F /  8.9 °C 35.8 °F /  2.1 °C 30.2in /  1022.0hPa Este 2.1mph /  3.4km/h 4.6mph /  7.4km/h 62.5% 0in /  0.0mm
09:24 48.4 °F /  9.1 °C 35.8 °F /  2.1 °C 30.2in /  1022.0hPa SE 2.4mph /  3.9km/h 4.7mph /  7.6km/h 61.5% 0in /  0.0mm
09:29 48.6 °F /  9.2 °C 36 °F /  2.2 °C 30.2in /  1022.0hPa SSE 2.6mph /  4.2km/h 6.9mph /  11.1km/h 61.6% 0in /  0.0mm
09:34 48.4 °F /  9.1 °C 36.1 °F /  2.3 °C 30.2in /  1022.0hPa SSE 3.1mph /  5km/h 8.1mph /  13km/h 62.2% 0in /  0.0mm
09:39 48.4 °F /  9.1 °C 36.1 °F /  2.3 °C 30.2in /  1022.0hPa Sur 3.9mph /  6.2km/h 10.4mph /  16.7km/h 62.1% 0in /  0.0mm
09:44 48.7 °F /  9.3 °C 36 °F /  2.2 °C 30.2in /  1021.8hPa Sur 5.9mph /  9.5km/h 9.7mph /  15.6km/h 61.1% 0in /  0.0mm
09:49 48.7 °F /  9.3 °C 36 °F /  2.2 °C 30.2in /  1021.8hPa SSO 6mph /  9.6km/h 8.5mph /  13.7km/h 61% 0in /  0.0mm
09:54 49.1 °F /  9.5 °C 36 °F /  2.2 °C 30.2in /  1021.8hPa SSO 6.2mph /  10km/h 10.4mph /  16.7km/h 60.4% 0in /  0.0mm
09:59 49.5 °F /  9.7 °C 36 °F /  2.2 °C 30.2in /  1021.7hPa SSO 6.3mph /  10.1km/h 10.4mph /  16.7km/h 59.2% 0in /  0.0mm
10:04 50 °F /  10 °C 36 °F /  2.2 °C 30.2in /  1021.7hPa SSO 6.4mph /  10.3km/h 11.5mph /  18.5km/h 58.2% 0in /  0.0mm
10:09 50.4 °F /  10.2 °C 35.8 °F /  2.1 °C 30.2in /  1021.7hPa SSO 6.5mph /  10.5km/h 11.8mph /  19km/h 57.1% 0in /  0.0mm
10:14 50.9 °F /  10.5 °C 35.8 °F /  2.1 °C 30.2in /  1021.5hPa SSO 6.9mph /  11.1km/h 11.5mph /  18.5km/h 56.1% 0in /  0.0mm
10:19 51.3 °F /  10.7 °C 35.8 °F /  2.1 °C 30.2in /  1021.5hPa SSO 6.7mph /  10.8km/h 9.2mph /  14.8km/h 55.3% 0in /  0.0mm
10:24 51.4 °F /  10.8 °C 35.8 °F /  2.1 °C 30.2in /  1021.7hPa SSO 6.2mph /  10km/h 9.2mph /  14.8km/h 54.8% 0in /  0.0mm
10:29 51.8 °F /  11 °C 36 °F /  2.2 °C 30.2in /  1021.7hPa SSO 5.9mph /  9.5km/h 9.2mph /  14.8km/h 54.8% 0in /  0.0mm
10:34 52.2 °F /  11.2 °C 35.6 °F /  2 °C 30.2in /  1021.7hPa SSO 5.2mph /  8.4km/h 9.2mph /  14.8km/h 53.4% 0in /  0.0mm
10:39 52.3 °F /  11.3 °C 35.8 °F /  2.1 °C 30.2in /  1021.7hPa SSO 5mph /  8.1km/h 6.9mph /  11.1km/h 53% 0in /  0.0mm
10:44 52.9 °F /  11.6 °C 36.1 °F /  2.3 °C 30.2in /  1021.7hPa SO 4.7mph /  7.6km/h 4.6mph /  7.4km/h 52.9% 0in /  0.0mm
10:49 53.4 °F /  11.9 °C 36.1 °F /  2.3 °C 30.2in /  1021.7hPa OSO 3.9mph /  6.2km/h 4.6mph /  7.4km/h 51.6% 0in /  0.0mm
10:54 54 °F /  12.2 °C 35.6 °F /  2 °C 30.2in /  1021.7hPa OSO 2mph /  3.2km/h 5.8mph /  9.3km/h 50% 0in /  0.0mm
10:59 54.1 °F /  12.3 °C 35.8 °F /  2.1 °C 30.2in /  1021.7hPa SO 2.2mph /  3.6km/h 4.7mph /  7.6km/h 50% 0in /  0.0mm
11:04 54.3 °F /  12.4 °C 36 °F /  2.2 °C 30.2in /  1021.7hPa OSO 2.9mph /  4.7km/h 5.8mph /  9.3km/h 50% 0in /  0.0mm
11:09 54.1 °F /  12.3 °C 36 °F /  2.2 °C 30.2in /  1021.7hPa OSO 3mph /  4.8km/h 5.8mph /  9.3km/h 50% 0in /  0.0mm
11:14 54.1 °F /  12.3 °C 36.1 °F /  2.3 °C 30.2in /  1021.6hPa OSO 3.1mph /  5km/h 8.1mph /  13km/h 50.6% 0in /  0.0mm
11:19 54.1 °F /  12.3 °C 36 °F /  2.2 °C 30.2in /  1021.6hPa SO 3.5mph /  5.7km/h 6.9mph /  11.1km/h 50% 0in /  0.0mm
11:24 54.3 °F /  12.4 °C 36 °F /  2.2 °C 30.2in /  1021.6hPa SO 4.7mph /  7.6km/h 7.4mph /  11.9km/h 49.8% 0in /  0.0mm
11:29 54.9 °F /  12.7 °C 36.1 °F /  2.3 °C 30.2in /  1021.5hPa SSO 4.6mph /  7.4km/h 13mph /  20.9km/h 49% 0in /  0.0mm
11:34 55.4 °F /  13 °C 36.1 °F /  2.3 °C 30.2in /  1021.5hPa SSO 4.3mph /  6.9km/h 12.7mph /  20.4km/h 48.1% 0in /  0.0mm
11:39 55.6 °F /  13.1 °C 36.7 °F /  2.6 °C 30.2in /  1021.5hPa SSO 4.8mph /  7.8km/h 6.9mph /  11.1km/h 48.9% 0in /  0.0mm
11:44 55.8 °F /  13.2 °C 36.9 °F /  2.7 °C 30.2in /  1021.1hPa SSO 6.2mph /  10km/h 10.4mph /  16.7km/h 49% 0in /  0.0mm
11:49 56.3 °F /  13.5 °C 37.4 °F /  3 °C 30.2in /  1021.1hPa SSO 6mph /  9.6km/h 9.2mph /  14.8km/h 49% 0in /  0.0mm
11:54 56.7 °F /  13.7 °C 37.6 °F /  3.1 °C 30.2in /  1021.1hPa SO 5.4mph /  8.7km/h 6.9mph /  11.1km/h 48.8% 0in /  0.0mm
11:59 57.2 °F /  14 °C 37.8 °F /  3.2 °C 30.2in /  1021.0hPa SSO 4.9mph /  7.9km/h 8.1mph /  13km/h 48.2% 0in /  0.0mm
12:04 57.6 °F /  14.2 °C 37.6 °F /  3.1 °C 30.2in /  1021.0hPa SO 4mph /  6.4km/h 8.1mph /  13km/h 47% 0in /  0.0mm
12:09 57.9 °F /  14.4 °C 37.8 °F /  3.2 °C 30.2in /  1021.0hPa Sur 3.9mph /  6.3km/h 8.5mph /  13.7km/h 46.9% 0in /  0.0mm
12:14 58.5 °F /  14.7 °C 37.2 °F /  2.9 °C 30.1in /  1020.7hPa SSE 3.6mph /  5.8km/h 9.2mph /  14.8km/h 45.1% 0in /  0.0mm
12:19 58.6 °F /  14.8 °C 37.4 °F /  3 °C 30.1in /  1020.7hPa SSE 4.1mph /  6.6km/h 9.2mph /  14.8km/h 45% 0in /  0.0mm
12:24 59 °F /  15 °C 37.6 °F /  3.1 °C 30.1in /  1020.7hPa Sur 5.4mph /  8.7km/h 11.2mph /  18km/h 44.6% 0in /  0.0mm
12:29 59.4 °F /  15.2 °C 37 °F /  2.8 °C 30.1in /  1020.2hPa SSO 5.7mph /  9.2km/h 13.5mph /  21.7km/h 43.5% 0in /  0.0mm
12:34 59.5 °F /  15.3 °C 37 °F /  2.8 °C 30.1in /  1020.2hPa Sur 6.4mph /  10.3km/h 13.8mph /  22.2km/h 43% 0in /  0.0mm
12:39 59.7 °F /  15.4 °C 37.2 °F /  2.9 °C 30.1in /  1020.2hPa Sur 7mph /  11.3km/h 12.7mph /  20.4km/h 43% 0in /  0.0mm
12:44 60.3 °F /  15.7 °C 37.4 °F /  3 °C 30.1in /  1020.1hPa Sur 8.5mph /  13.7km/h 11.5mph /  18.5km/h 42.6% 0in /  0.0mm
12:49 60.4 °F /  15.8 °C 37.2 °F /  2.9 °C 30.1in /  1020.1hPa SSO 7.9mph /  12.7km/h 9.2mph /  14.8km/h 42% 0in /  0.0mm
12:54 60.6 °F /  15.9 °C 37 °F /  2.8 °C 30.1in /  1020.1hPa SSO 6.4mph /  10.3km/h 12.7mph /  20.4km/h 41.5% 0in /  0.0mm
12:59 61 °F /  16.1 °C 37.2 °F /  2.9 °C 30.1in /  1019.6hPa SSO 6.6mph /  10.6km/h 11.5mph /  18.5km/h 41.3% 0in /  0.0mm
13:04 61.2 °F /  16.2 °C 37.4 °F /  3 °C 30.1in /  1019.6hPa SSO 6.9mph /  11.1km/h 9.2mph /  14.8km/h 41% 0in /  0.0mm
13:09 61.5 °F /  16.4 °C 37 °F /  2.8 °C 30.1in /  1019.6hPa SSO 6.5mph /  10.4km/h 9.7mph /  15.6km/h 40% 0in /  0.0mm
13:14 61.5 °F /  16.4 °C 37 °F /  2.8 °C 30.1in /  1019.5hPa Sur 5.4mph /  8.7km/h 8.1mph /  13km/h 40% 0in /  0.0mm
13:19 61.9 °F /  16.6 °C 37.4 °F /  3 °C 30.1in /  1019.5hPa SSE 5.1mph /  8.2km/h 8.1mph /  13km/h 40% 0in /  0.0mm
13:24 62.2 °F /  16.8 °C 37.6 °F /  3.1 °C 30.1in /  1019.5hPa SE 4.3mph /  6.9km/h 5.8mph /  9.3km/h 40% 0in /  0.0mm
13:29 62.6 °F /  17 °C 37.2 °F /  2.9 °C 30.1in /  1019.4hPa OSO 4mph /  6.4km/h 12.7mph /  20.4km/h 39% 0in /  0.0mm
13:34 63 °F /  17.2 °C 36.3 °F /  2.4 °C 30.1in /  1019.4hPa OSO 3.1mph /  5km/h 12.7mph /  20.4km/h 37.2% 0in /  0.0mm
13:39 63.3 °F /  17.4 °C 36.1 °F /  2.3 °C 30.1in /  1019.4hPa SO 4mph /  6.5km/h 15.2mph /  24.5km/h 36.3% 0in /  0.0mm
13:44 63.5 °F /  17.5 °C 36 °F /  2.2 °C 30.1in /  1019.0hPa OSO 6.4mph /  10.3km/h 13.8mph /  22.2km/h 36% 0in /  0.0mm
13:49 63.7 °F /  17.6 °C 36.1 °F /  2.3 °C 30.1in /  1019.0hPa SO 7mph /  11.2km/h 13.8mph /  22.2km/h 36% 0in /  0.0mm
13:54 63.9 °F /  17.7 °C 36.3 °F /  2.4 °C 30.1in /  1019.0hPa OSO 8.1mph /  13km/h 14mph /  22.5km/h 36% 0in /  0.0mm
13:59 64 °F /  17.8 °C 36.3 °F /  2.4 °C 30.1in /  1018.7hPa OSO 8mph /  12.8km/h 17.3mph /  27.8km/h 35.5% 0in /  0.0mm
14:04 64.2 °F /  17.9 °C 36.5 °F /  2.5 °C 30.1in /  1018.7hPa OSO 7.6mph /  12.2km/h 18.4mph /  29.6km/h 35.6% 0in /  0.0mm
14:09 64.4 °F /  18 °C 36.1 °F /  2.3 °C 30.1in /  1018.7hPa SO 7.8mph /  12.6km/h 18.5mph /  29.8km/h 35% 0in /  0.0mm
14:14 64.2 °F /  17.9 °C 36.1 °F /  2.3 °C 30.1in /  1018.5hPa SO 8.5mph /  13.7km/h 20.7mph /  33.3km/h 35.2% 0in /  0.0mm
14:19 64.2 °F /  17.9 °C 36.7 °F /  2.6 °C 30.1in /  1018.5hPa SO 8.8mph /  14.2km/h 15mph /  24.1km/h 35.9% 0in /  0.0mm
14:24 64.2 °F /  17.9 °C 36.7 °F /  2.6 °C 30.1in /  1018.5hPa SO 9.7mph /  15.6km/h 17.3mph /  27.8km/h 36% 0in /  0.0mm
14:29 64.2 °F /  17.9 °C 36.7 °F /  2.6 °C 30.1in /  1018.3hPa OSO 9.6mph /  15.4km/h 17.3mph /  27.8km/h 36% 0in /  0.0mm
14:34 64.4 °F /  18 °C 36.9 °F /  2.7 °C 30.1in /  1018.3hPa SO 9.2mph /  14.8km/h 17.3mph /  27.8km/h 36% 0in /  0.0mm
14:39 64.6 °F /  18.1 °C 37 °F /  2.8 °C 30.1in /  1018.3hPa SO 9.2mph /  14.8km/h 20.7mph /  33.3km/h 36% 0in /  0.0mm
14:44 64.8 °F /  18.2 °C 37 °F /  2.8 °C 30.1in /  1018.0hPa SO 9.2mph /  14.8km/h 16.1mph /  25.9km/h 36% 0in /  0.0mm
14:49 64.8 °F /  18.2 °C 37.2 °F /  2.9 °C 30.1in /  1018.0hPa SO 9.4mph /  15.2km/h 13mph /  20.9km/h 36% 0in /  0.0mm
14:54 64.9 °F /  18.3 °C 37.4 °F /  3 °C 30.1in /  1018.0hPa SO 10mph /  16.1km/h 15mph /  24.1km/h 36% 0in /  0.0mm
14:59 65.1 °F /  18.4 °C 37.6 °F /  3.1 °C 30.1in /  1017.7hPa SO 9.4mph /  15.1km/h 13.8mph /  22.2km/h 36% 0in /  0.0mm
15:04 65.1 °F /  18.4 °C 37.6 °F /  3.1 °C 30.1in /  1017.7hPa SO 8.1mph /  13km/h 12.7mph /  20.4km/h 36% 0in /  0.0mm
15:09 65.1 °F /  18.4 °C 37.6 °F /  3.1 °C 30.1in /  1017.7hPa SO 7.9mph /  12.7km/h 13mph /  20.9km/h 36% 0in /  0.0mm
15:14 65.5 °F /  18.6 °C 37.8 °F /  3.2 °C 30.1in /  1017.6hPa SO 7.4mph /  11.9km/h 11.5mph /  18.5km/h 36% 0in /  0.0mm
15:19 65.7 °F /  18.7 °C 37.9 °F /  3.3 °C 30.1in /  1017.6hPa SO 7mph /  11.2km/h 14.5mph /  23.3km/h 36% 0in /  0.0mm
15:24 66 °F /  18.9 °C 37.6 °F /  3.1 °C 30.1in /  1017.6hPa SO 5.9mph /  9.5km/h 15mph /  24.1km/h 35.1% 0in /  0.0mm
15:29 66.6 °F /  19.2 °C 37.9 °F /  3.3 °C 30in /  1017.4hPa SO 6.6mph /  10.6km/h 16.1mph /  25.9km/h 35% 0in /  0.0mm
15:34 66.7 °F /  19.3 °C 37.9 °F /  3.3 °C 30in /  1017.4hPa SO 8.1mph /  13km/h 17.5mph /  28.2km/h 34.7% 0in /  0.0mm
15:39 66.7 °F /  19.3 °C 37.6 °F /  3.1 °C 30in /  1017.4hPa SO 8.6mph /  13.9km/h 17.3mph /  27.8km/h 34.1% 0in /  0.0mm
15:44 66.9 °F /  19.4 °C 38.1 °F /  3.4 °C 30in /  1017.3hPa SO 10mph /  16.1km/h 20.8mph /  33.5km/h 34.7% 0in /  0.0mm
15:49 66.9 °F /  19.4 °C 38.1 °F /  3.4 °C 30in /  1017.3hPa SO 9.6mph /  15.4km/h 16.3mph /  26.2km/h 34.7% 0in /  0.0mm
15:54 67.3 °F /  19.6 °C 37.9 °F /  3.3 °C 30in /  1017.3hPa SO 8.5mph /  13.7km/h 17.3mph /  27.8km/h 34.1% 0in /  0.0mm
15:59 66.9 °F /  19.4 °C 37.9 °F /  3.3 °C 30in /  1017.3hPa SO 8.9mph /  14.4km/h 18.4mph /  29.6km/h 34.4% 0in /  0.0mm
16:04 66.9 °F /  19.4 °C 38.5 °F /  3.6 °C 30in /  1017.3hPa SSO 10mph /  16.1km/h 14mph /  22.5km/h 35% 0in /  0.0mm
16:09 66.9 °F /  19.4 °C 38.5 °F /  3.6 °C 30in /  1017.3hPa SO 9.6mph /  15.5km/h 15.2mph /  24.5km/h 35% 0in /  0.0mm
16:14 66.9 °F /  19.4 °C 38.5 °F /  3.6 °C 30in /  1017.3hPa SO 8.7mph /  14km/h 15.6mph /  25.1km/h 35% 0in /  0.0mm
16:19 66.9 °F /  19.4 °C 38.5 °F /  3.6 °C 30in /  1017.3hPa SO 8.5mph /  13.7km/h 17.5mph /  28.2km/h 35% 0in /  0.0mm
16:24 66.9 °F /  19.4 °C 38.5 °F /  3.6 °C 30in /  1017.3hPa SO 8.1mph /  13km/h 15mph /  24.1km/h 35% 0in /  0.0mm
16:29 66.7 °F /  19.3 °C 38.3 °F /  3.5 °C 30in /  1017.3hPa SO 8.3mph /  13.3km/h 15.6mph /  25.1km/h 35% 0in /  0.0mm
16:34 66.7 °F /  19.3 °C 38.3 °F /  3.5 °C 30in /  1017.3hPa SO 8.7mph /  14km/h 16.1mph /  25.9km/h 35% 0in /  0.0mm
16:39 66.7 °F /  19.3 °C 38.7 °F /  3.7 °C 30in /  1017.3hPa SO 9mph /  14.5km/h 15mph /  24.1km/h 35.6% 0in /  0.0mm
16:44 66.6 °F /  19.2 °C 38.8 °F /  3.8 °C 30in /  1017.2hPa SO 9.7mph /  15.6km/h 15mph /  24.1km/h 36% 0in /  0.0mm
16:49 66.6 °F /  19.2 °C 38.8 °F /  3.8 °C 30in /  1017.2hPa SO 9mph /  14.5km/h 10.4mph /  16.7km/h 36% 0in /  0.0mm
16:54 66.6 °F /  19.2 °C 39 °F /  3.9 °C 30in /  1017.3hPa SO 7.4mph /  11.9km/h 12.3mph /  19.8km/h 36.2% 0in /  0.0mm
16:59 66.7 °F /  19.3 °C 38.8 °F /  3.8 °C 30in /  1017.3hPa SO 7.3mph /  11.7km/h 16.3mph /  26.2km/h 36% 0in /  0.0mm
17:04 66.7 °F /  19.3 °C 38.8 °F /  3.8 °C 30in /  1017.3hPa SO 6.9mph /  11.1km/h 14.7mph /  23.7km/h 36% 0in /  0.0mm
17:09 66.7 °F /  19.3 °C 38.8 °F /  3.8 °C 30in /  1017.3hPa OSO 6.8mph /  10.9km/h 15mph /  24.1km/h 36% 0in /  0.0mm
17:14 66.6 °F /  19.2 °C 39 °F /  3.9 °C 30in /  1017.3hPa ONO 6.4mph /  10.3km/h 9.7mph /  15.6km/h 36.4% 0in /  0.0mm
17:19 66.2 °F /  19 °C 39.4 °F /  4.1 °C 30in /  1017.3hPa NO 6.1mph /  9.8km/h 7.6mph /  12.2km/h 37.4% 0in /  0.0mm
17:24 65.7 °F /  18.7 °C 39.7 °F /  4.3 °C 30.1in /  1017.7hPa ONO 5.2mph /  8.4km/h 8.5mph /  13.7km/h 38.5% 0in /  0.0mm
17:29 65.1 °F /  18.4 °C 39.7 °F /  4.3 °C 30.1in /  1017.7hPa ONO 5.3mph /  8.5km/h 10.4mph /  16.7km/h 39.4% 0in /  0.0mm
17:34 64.8 °F /  18.2 °C 40.1 °F /  4.5 °C 30.1in /  1017.7hPa ONO 5.4mph /  8.7km/h 15.2mph /  24.5km/h 40.4% 0in /  0.0mm
17:39 64.2 °F /  17.9 °C 40.3 °F /  4.6 °C 30.1in /  1017.8hPa ONO 6.2mph /  9.9km/h 14mph /  22.5km/h 41.4% 0in /  0.0mm
17:44 64 °F /  17.8 °C 40.6 °F /  4.8 °C 30.1in /  1017.8hPa ONO 8.1mph /  13km/h 14mph /  22.5km/h 42.4% 0in /  0.0mm
17:49 63.7 °F /  17.6 °C 40.8 °F /  4.9 °C 30.1in /  1017.8hPa ONO 8.3mph /  13.4km/h 15mph /  24.1km/h 43% 0in /  0.0mm
17:54 63.3 °F /  17.4 °C 41 °F /  5 °C 30.1in /  1017.9hPa ONO 9.2mph /  14.8km/h 13.8mph /  22.2km/h 44% 0in /  0.0mm
17:59 63 °F /  17.2 °C 41.4 °F /  5.2 °C 30.1in /  1017.9hPa ONO 8.9mph /  14.4km/h 16.3mph /  26.2km/h 44.9% 0in /  0.0mm
18:04 63 °F /  17.2 °C 41.4 °F /  5.2 °C 30.1in /  1017.9hPa ONO 8.5mph /  13.7km/h 16.1mph /  25.9km/h 45.1% 0in /  0.0mm
18:09 62.8 °F /  17.1 °C 41.7 °F /  5.4 °C 30.1in /  1017.9hPa ONO 8.8mph /  14.2km/h 16.8mph /  27km/h 46% 0in /  0.0mm
18:14 62.6 °F /  17 °C 41.5 °F /  5.3 °C 30.1in /  1017.9hPa ONO 9.7mph /  15.6km/h 13.8mph /  22.2km/h 46% 0in /  0.0mm
18:19 62.4 °F /  16.9 °C 41.7 °F /  5.4 °C 30.1in /  1017.9hPa ONO 8.9mph /  14.3km/h 10.2mph /  16.4km/h 46.5% 0in /  0.0mm
18:24 62.2 °F /  16.8 °C 41.7 °F /  5.4 °C 30.1in /  1018.1hPa ONO 6.9mph /  11.1km/h 11.5mph /  18.5km/h 47% 0in /  0.0mm
18:29 62.1 °F /  16.7 °C 41.5 °F /  5.3 °C 30.1in /  1018.1hPa ONO 6.7mph /  10.8km/h 11.5mph /  18.5km/h 47% 0in /  0.0mm
18:34 61.9 °F /  16.6 °C 42.1 °F /  5.6 °C 30.1in /  1018.1hPa ONO 6.2mph /  10km/h 10.4mph /  16.7km/h 48% 0in /  0.0mm
18:39 61.7 °F /  16.5 °C 41.9 °F /  5.5 °C 30.1in /  1018.3hPa ONO 6mph /  9.6km/h 8.1mph /  13km/h 48% 0in /  0.0mm
18:44 61.5 °F /  16.4 °C 41.5 °F /  5.3 °C 30.1in /  1018.3hPa ONO 5.4mph /  8.7km/h 8.1mph /  13km/h 48% 0in /  0.0mm
18:49 61.3 °F /  16.3 °C 41.9 °F /  5.5 °C 30.1in /  1018.3hPa ONO 5.1mph /  8.2km/h 7.4mph /  11.9km/h 48.9% 0in /  0.0mm
18:54 61.3 °F /  16.3 °C 41.9 °F /  5.5 °C 30.1in /  1018.3hPa Oeste 4.3mph /  6.9km/h 6.9mph /  11.1km/h 49% 0in /  0.0mm
18:59 61.2 °F /  16.2 °C 41.7 °F /  5.4 °C 30.1in /  1018.3hPa Oeste 4.2mph /  6.8km/h 8.1mph /  13km/h 49% 0in /  0.0mm
19:04 61.2 °F /  16.2 °C 41.7 °F /  5.4 °C 30.1in /  1018.3hPa Oeste 4mph /  6.4km/h 10.4mph /  16.7km/h 49% 0in /  0.0mm
19:09 61.2 °F /  16.2 °C 41.7 °F /  5.4 °C 30.1in /  1018.5hPa ONO 4.3mph /  7km/h 9.2mph /  14.8km/h 49% 0in /  0.0mm
19:14 61 °F /  16.1 °C 42.1 °F /  5.6 °C 30.1in /  1018.5hPa Oeste 5.4mph /  8.7km/h 6.9mph /  11.1km/h 49.7% 0in /  0.0mm
19:19 60.8 °F /  16 °C 41.9 °F /  5.5 °C 30.1in /  1018.5hPa Oeste 5.2mph /  8.4km/h 6.9mph /  11.1km/h 50% 0in /  0.0mm
19:24 60.4 °F /  15.8 °C 41.9 °F /  5.5 °C 30.1in /  1018.5hPa Oeste 4.7mph /  7.6km/h 5.9mph /  9.5km/h 50.4% 0in /  0.0mm
19:29 60.3 °F /  15.7 °C 42.1 °F /  5.6 °C 30.1in /  1018.4hPa Oeste 4mph /  6.4km/h 3.5mph /  5.6km/h 51% 0in /  0.0mm
19:34 60.3 °F /  15.7 °C 42.1 °F /  5.6 °C 30.1in /  1018.4hPa SO 2.4mph /  3.9km/h 3.5mph /  5.6km/h 51% 0in /  0.0mm
19:39 60.1 °F /  15.6 °C 41.9 °F /  5.5 °C 30.1in /  1018.7hPa Sur 2.3mph /  3.7km/h 3.5mph /  5.6km/h 51% 0in /  0.0mm
19:44 60.1 °F /  15.6 °C 42.4 °F /  5.8 °C 30.1in /  1018.7hPa SE 2mph /  3.2km/h 4.6mph /  7.4km/h 51.9% 0in /  0.0mm
19:49 59.9 °F /  15.5 °C 42.3 °F /  5.7 °C 30.1in /  1018.7hPa ENE 2.2mph /  3.6km/h 4.6mph /  7.4km/h 52% 0in /  0.0mm
19:54 59.7 °F /  15.4 °C 42.1 °F /  5.6 °C 30.1in /  1018.7hPa ESE 2.9mph /  4.7km/h 4.6mph /  7.4km/h 52% 0in /  0.0mm
19:59 59.4 °F /  15.2 °C 42.1 °F /  5.6 °C 30.1in /  1018.7hPa ESE 2.7mph /  4.4km/h 3.5mph /  5.6km/h 52.8% 0in /  0.0mm
20:04 59.2 °F /  15.1 °C 42.1 °F /  5.6 °C 30.1in /  1018.7hPa Este 2.4mph /  3.9km/h 5.2mph /  8.4km/h 53% 0in /  0.0mm
20:09 58.8 °F /  14.9 °C 42.3 °F /  5.7 °C 30.1in /  1018.8hPa ENE 2.5mph /  4.1km/h 6.2mph /  10km/h 54% 0in /  0.0mm
20:14 58.6 °F /  14.8 °C 42.1 °F /  5.6 °C 30.1in /  1018.8hPa SE 2.9mph /  4.7km/h 5.2mph /  8.4km/h 54% 0in /  0.0mm
20:19 58.5 °F /  14.7 °C 41.9 °F /  5.5 °C 30.1in /  1018.8hPa Este 2.9mph /  4.7km/h 4.7mph /  7.6km/h 54% 0in /  0.0mm
20:24 58.6 °F /  14.8 °C 42.1 °F /  5.6 °C 30.1in /  1019.0hPa Oeste 2.9mph /  4.7km/h 4.6mph /  7.4km/h 54% 0in /  0.0mm
20:29 58.6 °F /  14.8 °C 41.7 °F /  5.4 °C 30.1in /  1019.0hPa NO 2.5mph /  4.1km/h 2.9mph /  4.7km/h 53.2% 0in /  0.0mm
20:34 58.8 °F /  14.9 °C 41.7 °F /  5.4 °C 30.1in /  1019.0hPa NNO 1.8mph /  2.9km/h 3.5mph /  5.6km/h 53% 0in /  0.0mm
20:39 59.2 °F /  15.1 °C 41.9 °F /  5.5 °C 30.1in /  1019.0hPa Oeste 2mph /  3.2km/h 4.7mph /  7.6km/h 53% 0in /  0.0mm
20:44 59.2 °F /  15.1 °C 41.9 °F /  5.5 °C 30.1in /  1019.0hPa OSO 2.4mph /  3.9km/h 6.2mph /  10km/h 53% 0in /  0.0mm
20:49 58.8 °F /  14.9 °C 41.7 °F /  5.4 °C 30.1in /  1019.0hPa Oeste 2.9mph /  4.7km/h 6.9mph /  11.1km/h 53.2% 0in /  0.0mm
20:54 58.3 °F /  14.6 °C 41.9 °F /  5.5 °C 30.1in /  1019.0hPa ONO 4.3mph /  6.9km/h 6.9mph /  11.1km/h 54.5% 0in /  0.0mm
20:59 57.7 °F /  14.3 °C 42.1 °F /  5.6 °C 30.1in /  1018.7hPa ONO 4.7mph /  7.5km/h 8.1mph /  13km/h 55.6% 0in /  0.0mm
21:04 57.6 °F /  14.2 °C 42.1 °F /  5.6 °C 30.1in /  1018.7hPa ONO 5.4mph /  8.7km/h 8.1mph /  13km/h 56% 0in /  0.0mm
21:09 57.4 °F /  14.1 °C 42.1 °F /  5.6 °C 30.1in /  1018.7hPa ONO 5.4mph /  8.7km/h 6.9mph /  11.1km/h 56.8% 0in /  0.0mm
21:14 57 °F /  13.9 °C 41.9 °F /  5.5 °C 30.1in /  1018.7hPa ONO 5.4mph /  8.7km/h 6.9mph /  11.1km/h 57% 0in /  0.0mm
21:19 57.2 °F /  14 °C 42.1 °F /  5.6 °C 30.1in /  1018.7hPa Oeste 5.2mph /  8.4km/h 9.2mph /  14.8km/h 57% 0in /  0.0mm
21:24 57 °F /  13.9 °C 42.1 °F /  5.6 °C 30.1in /  1018.7hPa Oeste 4.7mph /  7.6km/h 8.1mph /  13km/h 57.2% 0in /  0.0mm
21:29 56.8 °F /  13.8 °C 42.1 °F /  5.6 °C 30.1in /  1018.6hPa OSO 4.8mph /  7.8km/h 6.9mph /  11.1km/h 57.5% 0in /  0.0mm
21:34 56.7 °F /  13.7 °C 42.1 °F /  5.6 °C 30.1in /  1018.6hPa Oeste 5.2mph /  8.4km/h 5.9mph /  9.5km/h 58.2% 0in /  0.0mm
21:39 56.3 °F /  13.5 °C 42.1 °F /  5.6 °C 30.1in /  1018.6hPa Oeste 4.8mph /  7.8km/h 5.8mph /  9.3km/h 59% 0in /  0.0mm
21:44 56.5 °F /  13.6 °C 42.3 °F /  5.7 °C 30.1in /  1018.6hPa NO 4mph /  6.4km/h 4.6mph /  7.4km/h 59% 0in /  0.0mm
21:49 56.5 °F /  13.6 °C 42.3 °F /  5.7 °C 30.1in /  1018.6hPa NNO 3.4mph /  5.5km/h 2.4mph /  3.9km/h 59% 0in /  0.0mm
21:54 56.3 °F /  13.5 °C 42.1 °F /  5.6 °C 30.1in /  1018.6hPa OSO 2mph /  3.2km/h 4.7mph /  7.6km/h 59% 0in /  0.0mm
21:59 56.1 °F /  13.4 °C 42.1 °F /  5.6 °C 30.1in /  1018.5hPa SO 2.1mph /  3.4km/h 4.7mph /  7.6km/h 59% 0in /  0.0mm
22:04 56.1 °F /  13.4 °C 42.1 °F /  5.6 °C 30.1in /  1018.5hPa SO 2.4mph /  3.9km/h 4.7mph /  7.6km/h 59% 0in /  0.0mm
22:09 56.1 °F /  13.4 °C 42.3 °F /  5.7 °C 30.1in /  1018.5hPa SO 2.5mph /  4.1km/h 4.7mph /  7.6km/h 59.5% 0in /  0.0mm
22:14 55.9 °F /  13.3 °C 42.3 °F /  5.7 °C 30.1in /  1018.5hPa SO 3.1mph /  5km/h 5.2mph /  8.4km/h 60% 0in /  0.0mm
22:19 55.9 °F /  13.3 °C 42.3 °F /  5.7 °C 30.1in /  1018.5hPa SO 3.1mph /  5km/h 5.2mph /  8.4km/h 60% 0in /  0.0mm
22:24 55.9 °F /  13.3 °C 42.3 °F /  5.7 °C 30.1in /  1018.6hPa SO 3.1mph /  5km/h 4.6mph /  7.4km/h 60% 0in /  0.0mm
22:29 55.9 °F /  13.3 °C 42.3 °F /  5.7 °C 30.1in /  1018.6hPa SO 3mph /  4.9km/h 4.6mph /  7.4km/h 60% 0in /  0.0mm
22:34 56.1 °F /  13.4 °C 42.4 °F /  5.8 °C 30.1in /  1018.6hPa Sur 2.9mph /  4.7km/h 3.5mph /  5.6km/h 60% 0in /  0.0mm
22:39 56.1 °F /  13.4 °C 42.4 °F /  5.8 °C 30.1in /  1018.6hPa SSE 2.6mph /  4.2km/h 3.6mph /  5.8km/h 60% 0in /  0.0mm
22:44 55.9 °F /  13.3 °C 42.3 °F /  5.7 °C 30.1in /  1018.4hPa SSE 2mph /  3.2km/h 6.2mph /  10km/h 60% 0in /  0.0mm
22:49 55.8 °F /  13.2 °C 42.4 °F /  5.8 °C 30.1in /  1018.4hPa Sur 2.5mph /  4.1km/h 5.9mph /  9.5km/h 60.8% 0in /  0.0mm
22:54 55.8 °F /  13.2 °C 42.4 °F /  5.8 °C 30.1in /  1018.4hPa SSO 4mph /  6.4km/h 6.4mph /  10.3km/h 61% 0in /  0.0mm
Murcia-Puente Tocinos, Espa?a
Compliments of Weather Underground - 3 mb

La estación de MeteoMurcia.com, publica sus datos en los siguientes proyectos:

Weather Underground PWS IMURCIAP2 Meteoclimatic www.awekas.at

W3Counter
Web Analytics